sensor_id;sensor_type;location;lat;lon;timestamp;pressure;altitude;pressure_sealevel;temperature;humidity
63321;BME280;49449;48.800;9.534;2022-09-14T00:01:22;97667.69;;;19.36;40.59
63321;BME280;49449;48.800;9.534;2022-09-14T00:03:52;97652.09;;;19.38;40.53
63321;BME280;49449;48.800;9.534;2022-09-14T00:06:20;97649.25;;;19.35;41.13
63321;BME280;49449;48.800;9.534;2022-09-14T00:08:49;97644.81;;;19.30;40.33
63321;BME280;49449;48.800;9.534;2022-09-14T00:11:18;97635.38;;;19.33;40.62
63321;BME280;49449;48.800;9.534;2022-09-14T00:13:47;97636.97;;;19.34;39.78
63321;BME280;49449;48.800;9.534;2022-09-14T00:16:17;97645.59;;;19.30;40.47
63321;BME280;49449;48.800;9.534;2022-09-14T00:18:50;97651.75;;;19.31;40.24
63321;BME280;49449;48.800;9.534;2022-09-14T00:21:18;97645.47;;;19.36;40.15
63321;BME280;49449;48.800;9.534;2022-09-14T00:23:46;97646.44;;;19.40;40.10
63321;BME280;49449;48.800;9.534;2022-09-14T00:26:17;97644.06;;;19.38;40.06
63321;BME280;49449;48.800;9.534;2022-09-14T00:28:45;97637.75;;;19.34;40.50
63321;BME280;49449;48.800;9.534;2022-09-14T00:31:14;97633.84;;;19.40;40.95
63321;BME280;49449;48.800;9.534;2022-09-14T00:33:43;97628.81;;;19.39;40.50
63321;BME280;49449;48.800;9.534;2022-09-14T00:36:16;97628.31;;;19.37;40.86
63321;BME280;49449;48.800;9.534;2022-09-14T00:38:44;97606.56;;;19.38;40.90
63321;BME280;49449;48.800;9.534;2022-09-14T00:41:14;97595.06;;;19.38;41.20
63321;BME280;49449;48.800;9.534;2022-09-14T00:43:51;97587.66;;;19.35;41.55
63321;BME280;49449;48.800;9.534;2022-09-14T00:46:19;97568.91;;;19.35;41.39
63321;BME280;49449;48.800;9.534;2022-09-14T00:48:47;97575.06;;;19.35;41.06
63321;BME280;49449;48.800;9.534;2022-09-14T00:51:18;97573.19;;;19.36;41.26
63321;BME280;49449;48.800;9.534;2022-09-14T00:53:46;97569.25;;;19.33;41.20
63321;BME280;49449;48.800;9.534;2022-09-14T00:56:15;97568.44;;;19.33;41.30
63321;BME280;49449;48.800;9.534;2022-09-14T00:58:44;97569.06;;;19.29;41.30
63321;BME280;49449;48.800;9.534;2022-09-14T01:01:13;97572.22;;;19.32;41.22
63321;BME280;49449;48.800;9.534;2022-09-14T01:03:41;97571.59;;;19.35;41.09
63321;BME280;49449;48.800;9.534;2022-09-14T01:06:28;97568.13;;;19.34;41.18
63321;BME280;49449;48.800;9.534;2022-09-14T01:09:17;97570.50;;;19.36;41.55
63321;BME280;49449;48.800;9.534;2022-09-14T01:11:59;97567.03;;;19.35;41.65
63321;BME280;49449;48.800;9.534;2022-09-14T01:14:37;97560.06;;;19.25;41.81
63321;BME280;49449;48.800;9.534;2022-09-14T01:17:11;97562.56;;;19.22;41.79
63321;BME280;49449;48.800;9.534;2022-09-14T01:20:05;97544.44;;;19.19;42.07
63321;BME280;49449;48.800;9.534;2022-09-14T01:22:41;97541.63;;;19.24;42.05
63321;BME280;49449;48.800;9.534;2022-09-14T01:25:22;97535.97;;;19.25;41.97
63321;BME280;49449;48.800;9.534;2022-09-14T01:27:59;97532.19;;;19.26;42.42
63321;BME280;49449;48.800;9.534;2022-09-14T01:30:30;97516.31;;;19.30;42.40
63321;BME280;49449;48.800;9.534;2022-09-14T01:33:06;97513.28;;;19.23;42.74
63321;BME280;49449;48.800;9.534;2022-09-14T01:35:41;97513.75;;;19.25;42.73
63321;BME280;49449;48.800;9.534;2022-09-14T01:38:17;97516.44;;;19.25;42.58
63321;BME280;49449;48.800;9.534;2022-09-14T01:40:47;97559.75;;;19.27;42.38
63321;BME280;49449;48.800;9.534;2022-09-14T01:43:20;97614.16;;;19.14;43.05
63321;BME280;49449;48.800;9.534;2022-09-14T01:45:55;97641.88;;;19.09;42.51
63321;BME280;49449;48.800;9.534;2022-09-14T01:48:29;97612.91;;;19.11;44.09
63321;BME280;49449;48.800;9.534;2022-09-14T01:51:04;97675.72;;;18.91;45.83
63321;BME280;49449;48.800;9.534;2022-09-14T01:53:35;97655.34;;;18.81;44.93
63321;BME280;49449;48.800;9.534;2022-09-14T01:56:09;97667.00;;;18.85;45.34
63321;BME280;49449;48.800;9.534;2022-09-14T01:58:44;97671.75;;;18.88;45.56
63321;BME280;49449;48.800;9.534;2022-09-14T02:01:18;97682.16;;;18.90;45.60
63321;BME280;49449;48.800;9.534;2022-09-14T02:03:48;97684.94;;;18.85;45.99
63321;BME280;49449;48.800;9.534;2022-09-14T02:06:22;97677.66;;;18.77;45.77
63321;BME280;49449;48.800;9.534;2022-09-14T02:08:51;97687.44;;;18.81;45.46
63321;BME280;49449;48.800;9.534;2022-09-14T02:11:19;97735.75;;;18.62;46.50
63321;BME280;49449;48.800;9.534;2022-09-14T02:13:48;97706.63;;;18.61;46.75
63321;BME280;49449;48.800;9.534;2022-09-14T02:16:17;97694.25;;;18.65;46.71
63321;BME280;49449;48.800;9.534;2022-09-14T02:18:45;97694.44;;;18.68;47.48
63321;BME280;49449;48.800;9.534;2022-09-14T02:21:16;97697.88;;;18.69;46.91
63321;BME280;49449;48.800;9.534;2022-09-14T02:23:45;97704.56;;;18.58;47.26
63321;BME280;49449;48.800;9.534;2022-09-14T02:26:15;97669.50;;;18.59;47.25
63321;BME280;49449;48.800;9.534;2022-09-14T02:28:44;97661.47;;;18.59;47.33
63321;BME280;49449;48.800;9.534;2022-09-14T02:31:26;97663.13;;;18.55;47.62
63321;BME280;49449;48.800;9.534;2022-09-14T02:34:02;97663.31;;;18.59;48.26
63321;BME280;49449;48.800;9.534;2022-09-14T02:36:43;97674.31;;;18.57;48.02
63321;BME280;49449;48.800;9.534;2022-09-14T02:39:20;97667.13;;;18.58;48.15
63321;BME280;49449;48.800;9.534;2022-09-14T02:41:51;97646.31;;;18.54;46.73
63321;BME280;49449;48.800;9.534;2022-09-14T02:44:28;97634.47;;;18.47;48.80
63321;BME280;49449;48.800;9.534;2022-09-14T02:47:02;97619.41;;;18.37;47.82
63321;BME280;49449;48.800;9.534;2022-09-14T02:49:37;97640.81;;;18.37;48.20
63321;BME280;49449;48.800;9.534;2022-09-14T02:52:14;97635.47;;;18.37;48.69
63321;BME280;49449;48.800;9.534;2022-09-14T02:54:47;97626.34;;;18.38;49.11
63321;BME280;49449;48.800;9.534;2022-09-14T02:57:17;97630.31;;;18.41;48.32
63321;BME280;49449;48.800;9.534;2022-09-14T02:59:45;97630.78;;;18.43;48.83
63321;BME280;49449;48.800;9.534;2022-09-14T03:02:14;97626.25;;;18.43;48.91
63321;BME280;49449;48.800;9.534;2022-09-14T03:04:42;97627.03;;;18.44;48.49
63321;BME280;49449;48.800;9.534;2022-09-14T03:07:09;97620.56;;;18.45;48.80
63321;BME280;49449;48.800;9.534;2022-09-14T03:09:37;97616.63;;;18.42;48.55
63321;BME280;49449;48.800;9.534;2022-09-14T03:12:05;97610.50;;;18.42;48.27
63321;BME280;49449;48.800;9.534;2022-09-14T03:14:33;97623.06;;;18.41;48.33
63321;BME280;49449;48.800;9.534;2022-09-14T03:17:00;97618.03;;;18.40;48.57
63321;BME280;49449;48.800;9.534;2022-09-14T03:19:29;97622.28;;;18.41;48.69
63321;BME280;49449;48.800;9.534;2022-09-14T03:21:57;97627.31;;;18.42;48.26
63321;BME280;49449;48.800;9.534;2022-09-14T03:24:25;97632.09;;;18.45;48.58
63321;BME280;49449;48.800;9.534;2022-09-14T03:26:53;97622.47;;;18.44;48.94
63321;BME280;49449;48.800;9.534;2022-09-14T03:29:20;97609.31;;;18.34;48.82
63321;BME280;49449;48.800;9.534;2022-09-14T03:31:48;97590.59;;;18.34;48.68
63321;BME280;49449;48.800;9.534;2022-09-14T03:34:16;97591.41;;;18.34;48.51
63321;BME280;49449;48.800;9.534;2022-09-14T03:36:45;97592.00;;;18.31;48.72
63321;BME280;49449;48.800;9.534;2022-09-14T03:39:13;97622.97;;;18.32;48.87
63321;BME280;49449;48.800;9.534;2022-09-14T03:41:40;97629.34;;;18.37;48.92
63321;BME280;49449;48.800;9.534;2022-09-14T03:44:08;97611.41;;;18.37;49.02
63321;BME280;49449;48.800;9.534;2022-09-14T03:46:36;97596.47;;;18.36;48.99
63321;BME280;49449;48.800;9.534;2022-09-14T03:49:04;97593.78;;;18.36;49.07
63321;BME280;49449;48.800;9.534;2022-09-14T03:51:32;97589.41;;;18.40;49.12
63321;BME280;49449;48.800;9.534;2022-09-14T03:54:02;97593.16;;;18.39;49.08
63321;BME280;49449;48.800;9.534;2022-09-14T03:56:30;97586.25;;;18.38;49.01
63321;BME280;49449;48.800;9.534;2022-09-14T03:59:00;97571.00;;;18.39;49.47
63321;BME280;49449;48.800;9.534;2022-09-14T04:01:28;97562.66;;;18.40;49.12
63321;BME280;49449;48.800;9.534;2022-09-14T04:03:55;97556.22;;;18.41;48.99
63321;BME280;49449;48.800;9.534;2022-09-14T04:06:23;97554.34;;;18.42;49.44
63321;BME280;49449;48.800;9.534;2022-09-14T04:08:51;97556.22;;;18.41;49.12
63321;BME280;49449;48.800;9.534;2022-09-14T04:11:23;97562.38;;;18.42;49.03
63321;BME280;49449;48.800;9.534;2022-09-14T04:13:51;97554.66;;;18.40;49.36
63321;BME280;49449;48.800;9.534;2022-09-14T04:16:20;97549.59;;;18.39;49.50
63321;BME280;49449;48.800;9.534;2022-09-14T04:18:48;97547.03;;;18.33;49.58
63321;BME280;49449;48.800;9.534;2022-09-14T04:21:17;97540.31;;;18.36;49.38
63321;BME280;49449;48.800;9.534;2022-09-14T04:23:45;97540.78;;;18.38;49.52
63321;BME280;49449;48.800;9.534;2022-09-14T04:26:34;97539.69;;;18.39;49.22
63321;BME280;49449;48.800;9.534;2022-09-14T04:29:02;97545.84;;;18.40;49.28
63321;BME280;49449;48.800;9.534;2022-09-14T04:31:30;97543.34;;;18.43;49.48
63321;BME280;49449;48.800;9.534;2022-09-14T04:33:58;97532.66;;;18.43;49.43
63321;BME280;49449;48.800;9.534;2022-09-14T04:36:27;97527.78;;;18.45;49.87
63321;BME280;49449;48.800;9.534;2022-09-14T04:38:57;97525.13;;;18.45;49.35
63321;BME280;49449;48.800;9.534;2022-09-14T04:41:26;97526.50;;;18.43;49.50
63321;BME280;49449;48.800;9.534;2022-09-14T04:43:56;97530.09;;;18.38;49.88
63321;BME280;49449;48.800;9.534;2022-09-14T04:46:26;97536.94;;;18.30;50.27
63321;BME280;49449;48.800;9.534;2022-09-14T04:48:54;97529.91;;;18.34;49.96
63321;BME280;49449;48.800;9.534;2022-09-14T04:51:24;97525.06;;;18.37;49.88
63321;BME280;49449;48.800;9.534;2022-09-14T04:53:53;97514.06;;;18.38;49.96
63321;BME280;49449;48.800;9.534;2022-09-14T04:56:22;97521.78;;;18.40;50.18
63321;BME280;49449;48.800;9.534;2022-09-14T04:58:51;97525.72;;;18.42;49.62
63321;BME280;49449;48.800;9.534;2022-09-14T05:01:22;97513.13;;;18.43;50.26
63321;BME280;49449;48.800;9.534;2022-09-14T05:03:50;97519.59;;;18.42;50.18
63321;BME280;49449;48.800;9.534;2022-09-14T05:06:19;97508.59;;;18.43;50.29
63321;BME280;49449;48.800;9.534;2022-09-14T05:08:48;97517.09;;;18.45;49.71
63321;BME280;49449;48.800;9.534;2022-09-14T05:11:18;97517.88;;;18.46;49.68
63321;BME280;49449;48.800;9.534;2022-09-14T05:13:46;97522.94;;;18.47;49.63
63321;BME280;49449;48.800;9.534;2022-09-14T05:16:17;97525.91;;;18.46;50.03
63321;BME280;49449;48.800;9.534;2022-09-14T05:18:46;97530.59;;;18.40;50.36
63321;BME280;49449;48.800;9.534;2022-09-14T05:21:17;97527.91;;;18.40;50.72
63321;BME280;49449;48.800;9.534;2022-09-14T05:23:45;97525.28;;;18.26;50.81
63321;BME280;49449;48.800;9.534;2022-09-14T05:26:14;97523.28;;;18.32;50.70
63321;BME280;49449;48.800;9.534;2022-09-14T05:28:41;97534.44;;;18.34;50.52
63321;BME280;49449;48.800;9.534;2022-09-14T05:31:10;97546.16;;;18.38;50.49
63321;BME280;49449;48.800;9.534;2022-09-14T05:33:38;97541.75;;;18.42;50.49
63321;BME280;49449;48.800;9.534;2022-09-14T05:36:08;97544.63;;;18.46;50.50
63321;BME280;49449;48.800;9.534;2022-09-14T05:38:37;97550.44;;;18.48;50.29
63321;BME280;49449;48.800;9.534;2022-09-14T05:41:07;97555.19;;;18.51;50.64
63321;BME280;49449;48.800;9.534;2022-09-14T05:43:36;97555.78;;;18.48;50.75
63321;BME280;49449;48.800;9.534;2022-09-14T05:46:05;97544.31;;;18.47;50.55
63321;BME280;49449;48.800;9.534;2022-09-14T05:48:35;97554.72;;;18.49;50.63
63321;BME280;49449;48.800;9.534;2022-09-14T05:51:05;97574.50;;;18.48;50.83
63321;BME280;49449;48.800;9.534;2022-09-14T05:53:35;97573.72;;;18.47;51.27
63321;BME280;49449;48.800;9.534;2022-09-14T05:56:05;97562.06;;;18.43;51.24
63321;BME280;49449;48.800;9.534;2022-09-14T05:58:34;97565.34;;;18.40;51.36
63321;BME280;49449;48.800;9.534;2022-09-14T06:01:06;97560.28;;;18.39;51.16
63321;BME280;49449;48.800;9.534;2022-09-14T06:03:34;97557.44;;;18.35;51.29
63321;BME280;49449;48.800;9.534;2022-09-14T06:06:04;97559.69;;;18.42;51.05
63321;BME280;49449;48.800;9.534;2022-09-14T06:08:32;97559.88;;;18.45;51.04
63321;BME280;49449;48.800;9.534;2022-09-14T06:11:06;97559.75;;;18.50;50.44
63321;BME280;49449;48.800;9.534;2022-09-14T06:13:34;97553.00;;;18.53;50.82
63321;BME280;49449;48.800;9.534;2022-09-14T06:16:02;97552.41;;;18.56;51.20
63321;BME280;49449;48.800;9.534;2022-09-14T06:18:31;97545.16;;;18.57;50.97
63321;BME280;49449;48.800;9.534;2022-09-14T06:20:59;97529.28;;;18.60;50.97
63321;BME280;49449;48.800;9.534;2022-09-14T06:23:27;97539.69;;;18.62;50.71
63321;BME280;49449;48.800;9.534;2022-09-14T06:25:56;97544.91;;;18.67;51.37
63321;BME280;49449;48.800;9.534;2022-09-14T06:28:26;97540.09;;;18.78;51.61
63321;BME280;49449;48.800;9.534;2022-09-14T06:30:54;97553.53;;;18.86;52.19
63321;BME280;49449;48.800;9.534;2022-09-14T06:33:22;97548.84;;;18.92;51.17
63321;BME280;49449;48.800;9.534;2022-09-14T06:35:54;97552.84;;;18.95;51.97
63321;BME280;49449;48.800;9.534;2022-09-14T06:38:22;97548.91;;;19.01;51.47
63321;BME280;49449;48.800;9.534;2022-09-14T06:40:51;97553.09;;;19.16;51.16
63321;BME280;49449;48.800;9.534;2022-09-14T06:43:19;97558.16;;;19.26;51.83
63321;BME280;49449;48.800;9.534;2022-09-14T06:45:56;97571.91;;;19.33;51.95
63321;BME280;49449;48.800;9.534;2022-09-14T06:48:24;97562.81;;;19.43;51.28
63321;BME280;49449;48.800;9.534;2022-09-14T06:50:52;97557.00;;;19.49;51.78
63321;BME280;49449;48.800;9.534;2022-09-14T06:53:20;97550.41;;;19.56;51.08
63321;BME280;49449;48.800;9.534;2022-09-14T06:55:48;97547.56;;;19.52;50.84
63321;BME280;49449;48.800;9.534;2022-09-14T06:58:16;97550.41;;;19.56;50.75
63321;BME280;49449;48.800;9.534;2022-09-14T07:00:44;97546.94;;;19.55;50.61
63321;BME280;49449;48.800;9.534;2022-09-14T07:03:13;97546.00;;;19.60;50.77
63321;BME280;49449;48.800;9.534;2022-09-14T07:05:41;97541.31;;;19.65;51.00
63321;BME280;49449;48.800;9.534;2022-09-14T07:08:08;97532.34;;;19.70;50.72
63321;BME280;49449;48.800;9.534;2022-09-14T07:10:37;97530.31;;;19.76;50.86
63321;BME280;49449;48.800;9.534;2022-09-14T07:13:05;97519.44;;;19.81;50.69
63321;BME280;49449;48.800;9.534;2022-09-14T07:15:33;97523.38;;;19.83;50.85
63321;BME280;49449;48.800;9.534;2022-09-14T07:18:00;97528.59;;;19.89;50.86
63321;BME280;49449;48.800;9.534;2022-09-14T07:20:29;97526.53;;;19.94;50.67
63321;BME280;49449;48.800;9.534;2022-09-14T07:22:58;97530.81;;;19.95;50.34
63321;BME280;49449;48.800;9.534;2022-09-14T07:25:26;97539.31;;;19.97;50.33
63321;BME280;49449;48.800;9.534;2022-09-14T07:27:53;97540.41;;;19.96;50.50
63321;BME280;49449;48.800;9.534;2022-09-14T07:30:21;97549.91;;;20.02;50.94
63321;BME280;49449;48.800;9.534;2022-09-14T07:32:50;97541.84;;;20.02;50.62
63321;BME280;49449;48.800;9.534;2022-09-14T07:35:18;97540.91;;;20.16;50.53
63321;BME280;49449;48.800;9.534;2022-09-14T07:37:47;97543.63;;;20.33;50.45
63321;BME280;49449;48.800;9.534;2022-09-14T07:40:15;97541.75;;;20.42;50.98
63321;BME280;49449;48.800;9.534;2022-09-14T07:42:49;97547.72;;;20.48;50.06
63321;BME280;49449;48.800;9.534;2022-09-14T07:45:20;97546.13;;;20.56;50.10
63321;BME280;49449;48.800;9.534;2022-09-14T07:47:48;97542.19;;;20.62;50.43
63321;BME280;49449;48.800;9.534;2022-09-14T07:50:16;97551.94;;;20.67;50.53
63321;BME280;49449;48.800;9.534;2022-09-14T07:52:44;97558.59;;;20.69;50.50
63321;BME280;49449;48.800;9.534;2022-09-14T07:55:13;97554.47;;;20.80;50.20
63321;BME280;49449;48.800;9.534;2022-09-14T07:57:41;97554.75;;;20.88;50.26
63321;BME280;49449;48.800;9.534;2022-09-14T08:00:20;97553.50;;;21.03;49.76
63321;BME280;49449;48.800;9.534;2022-09-14T08:02:51;97546.81;;;21.17;50.01
63321;BME280;49449;48.800;9.534;2022-09-14T08:05:20;97556.34;;;21.36;49.53
63321;BME280;49449;48.800;9.534;2022-09-14T08:07:52;97553.44;;;21.59;49.35
63321;BME280;49449;48.800;9.534;2022-09-14T08:10:22;97553.66;;;21.74;48.93
63321;BME280;49449;48.800;9.534;2022-09-14T08:12:51;97559.66;;;21.80;47.98
63321;BME280;49449;48.800;9.534;2022-09-14T08:15:20;97561.09;;;21.99;48.08
63321;BME280;49449;48.800;9.534;2022-09-14T08:17:49;97568.53;;;22.02;46.50
63321;BME280;49449;48.800;9.534;2022-09-14T08:20:17;97572.00;;;22.02;46.97
63321;BME280;49449;48.800;9.534;2022-09-14T08:22:45;97577.88;;;21.96;46.85
63321;BME280;49449;48.800;9.534;2022-09-14T08:25:13;97572.78;;;22.03;46.51
63321;BME280;49449;48.800;9.534;2022-09-14T08:27:42;97569.41;;;21.85;46.60
63321;BME280;49449;48.800;9.534;2022-09-14T08:30:11;97577.94;;;21.87;46.61
63321;BME280;49449;48.800;9.534;2022-09-14T08:32:39;97589.78;;;21.95;46.30
63321;BME280;49449;48.800;9.534;2022-09-14T08:35:08;97590.16;;;21.84;46.88
63321;BME280;49449;48.800;9.534;2022-09-14T08:37:35;97604.81;;;21.87;47.28
63321;BME280;49449;48.800;9.534;2022-09-14T08:40:04;97597.75;;;21.82;47.62
63321;BME280;49449;48.800;9.534;2022-09-14T08:42:31;97593.47;;;21.81;46.74
63321;BME280;49449;48.800;9.534;2022-09-14T08:45:03;97587.97;;;21.78;46.78
63321;BME280;49449;48.800;9.534;2022-09-14T08:47:35;97598.44;;;21.70;47.03
63321;BME280;49449;48.800;9.534;2022-09-14T08:50:11;97612.06;;;21.65;47.07
63321;BME280;49449;48.800;9.534;2022-09-14T08:52:40;97629.81;;;21.58;47.36
63321;BME280;49449;48.800;9.534;2022-09-14T08:55:21;97637.72;;;21.45;47.77
63321;BME280;49449;48.800;9.534;2022-09-14T08:57:55;97636.78;;;21.41;47.47
63321;BME280;49449;48.800;9.534;2022-09-14T09:00:34;97637.56;;;21.42;47.62
63321;BME280;49449;48.800;9.534;2022-09-14T09:03:23;97632.97;;;21.42;47.82
63321;BME280;49449;48.800;9.534;2022-09-14T09:06:02;97627.75;;;21.46;47.42
63321;BME280;49449;48.800;9.534;2022-09-14T09:08:37;97638.50;;;21.46;47.88
63321;BME280;49449;48.800;9.534;2022-09-14T09:11:09;97626.31;;;21.57;47.49
63321;BME280;49449;48.800;9.534;2022-09-14T09:13:41;97611.47;;;21.60;47.44
63321;BME280;49449;48.800;9.534;2022-09-14T09:16:16;97617.66;;;21.81;46.92
63321;BME280;49449;48.800;9.534;2022-09-14T09:18:46;97618.63;;;22.06;46.62
63321;BME280;49449;48.800;9.534;2022-09-14T09:21:17;97617.69;;;22.32;46.36
63321;BME280;49449;48.800;9.534;2022-09-14T09:23:46;97619.75;;;22.56;45.91
63321;BME280;49449;48.800;9.534;2022-09-14T09:26:16;97615.28;;;22.81;45.41
63321;BME280;49449;48.800;9.534;2022-09-14T09:28:50;97621.84;;;23.05;44.70
63321;BME280;49449;48.800;9.534;2022-09-14T09:31:28;97618.41;;;23.29;44.35
63321;BME280;49449;48.800;9.534;2022-09-14T09:33:57;97615.31;;;23.39;44.03
63321;BME280;49449;48.800;9.534;2022-09-14T09:36:25;97613.19;;;23.57;43.82
63321;BME280;49449;48.800;9.534;2022-09-14T09:38:55;97601.16;;;23.55;43.02
63321;BME280;49449;48.800;9.534;2022-09-14T09:41:26;97597.03;;;23.82;42.96
63321;BME280;49449;48.800;9.534;2022-09-14T09:43:58;97601.16;;;24.04;42.25
63321;BME280;49449;48.800;9.534;2022-09-14T09:46:29;97602.53;;;24.10;41.86
63321;BME280;49449;48.800;9.534;2022-09-14T09:48:58;97599.81;;;24.10;41.65
63321;BME280;49449;48.800;9.534;2022-09-14T09:51:31;97603.84;;;24.16;42.03
63321;BME280;49449;48.800;9.534;2022-09-14T09:54:05;97598.25;;;23.97;41.58
63321;BME280;49449;48.800;9.534;2022-09-14T09:56:36;97601.28;;;23.95;41.90
63321;BME280;49449;48.800;9.534;2022-09-14T09:59:21;97597.59;;;23.51;42.25
63321;BME280;49449;48.800;9.534;2022-09-14T10:01:53;97590.63;;;23.37;42.47
63321;BME280;49449;48.800;9.534;2022-09-14T10:04:24;97587.69;;;23.55;42.21
63321;BME280;49449;48.800;9.534;2022-09-14T10:06:53;97580.31;;;23.64;42.05
63321;BME280;49449;48.800;9.534;2022-09-14T10:09:24;97575.47;;;23.57;41.39
63321;BME280;49449;48.800;9.534;2022-09-14T10:11:58;97559.16;;;23.78;41.31
63321;BME280;49449;48.800;9.534;2022-09-14T10:14:28;97560.91;;;24.11;41.01
63321;BME280;49449;48.800;9.534;2022-09-14T10:17:05;97547.78;;;24.10;40.75
63321;BME280;49449;48.800;9.534;2022-09-14T10:19:34;97534.00;;;24.27;41.29
63321;BME280;49449;48.800;9.534;2022-09-14T10:22:15;97531.53;;;24.63;40.13
63321;BME280;49449;48.800;9.534;2022-09-14T10:24:53;97525.63;;;24.89;39.18
63321;BME280;49449;48.800;9.534;2022-09-14T10:27:34;97519.00;;;24.86;39.38
63321;BME280;49449;48.800;9.534;2022-09-14T10:30:09;97517.09;;;25.03;38.77
63321;BME280;49449;48.800;9.534;2022-09-14T10:32:42;97516.25;;;25.15;38.52
63321;BME280;49449;48.800;9.534;2022-09-14T10:35:12;97506.22;;;25.15;37.88
63321;BME280;49449;48.800;9.534;2022-09-14T10:37:49;97496.53;;;24.98;38.33
63321;BME280;49449;48.800;9.534;2022-09-14T10:40:30;97501.94;;;24.82;38.13
63321;BME280;49449;48.800;9.534;2022-09-14T10:43:08;97494.00;;;24.89;37.87
63321;BME280;49449;48.800;9.534;2022-09-14T10:45:40;97502.81;;;24.86;38.09
63321;BME280;49449;48.800;9.534;2022-09-14T10:48:21;97495.81;;;24.85;38.10
63321;BME280;49449;48.800;9.534;2022-09-14T10:50:57;97483.63;;;24.91;37.82
63321;BME280;49449;48.800;9.534;2022-09-14T10:53:37;97489.13;;;24.95;37.68
63321;BME280;49449;48.800;9.534;2022-09-14T10:56:12;97492.78;;;24.87;38.28
63321;BME280;49449;48.800;9.534;2022-09-14T10:59:00;97484.00;;;24.46;38.79
63321;BME280;49449;48.800;9.534;2022-09-14T11:01:52;97485.81;;;24.42;38.81
63321;BME280;49449;48.800;9.534;2022-09-14T11:04:44;97483.56;;;24.44;38.81
63321;BME280;49449;48.800;9.534;2022-09-14T11:07:20;97474.09;;;24.50;38.87
63321;BME280;49449;48.800;9.534;2022-09-14T11:09:56;97469.72;;;24.45;39.00
63321;BME280;49449;48.800;9.534;2022-09-14T11:12:31;97460.03;;;24.44;38.97
63321;BME280;49449;48.800;9.534;2022-09-14T11:15:06;97460.69;;;24.53;38.64
63321;BME280;49449;48.800;9.534;2022-09-14T11:17:56;97452.28;;;24.43;38.88
63321;BME280;49449;48.800;9.534;2022-09-14T11:20:37;97450.69;;;24.54;38.58
63321;BME280;49449;48.800;9.534;2022-09-14T11:23:19;97436.31;;;24.66;38.50
63321;BME280;49449;48.800;9.534;2022-09-14T11:25:53;97435.19;;;24.83;37.28
63321;BME280;49449;48.800;9.534;2022-09-14T11:28:25;97436.66;;;24.80;37.42
63321;BME280;49449;48.800;9.534;2022-09-14T11:31:01;97437.03;;;24.79;36.99
63321;BME280;49449;48.800;9.534;2022-09-14T11:33:36;97433.44;;;24.74;37.59
63321;BME280;49449;48.800;9.534;2022-09-14T11:36:11;97431.63;;;24.94;37.77
63321;BME280;49449;48.800;9.534;2022-09-14T11:38:47;97432.22;;;25.04;37.55
63321;BME280;49449;48.800;9.534;2022-09-14T11:41:23;97428.94;;;25.10;37.59
63321;BME280;49449;48.800;9.534;2022-09-14T11:43:56;97428.22;;;25.13;36.58
63321;BME280;49449;48.800;9.534;2022-09-14T11:46:30;97422.97;;;25.21;37.53
63321;BME280;49449;48.800;9.534;2022-09-14T11:49:06;97431.88;;;25.21;36.69
63321;BME280;49449;48.800;9.534;2022-09-14T11:51:40;97422.06;;;25.33;36.53
63321;BME280;49449;48.800;9.534;2022-09-14T11:54:13;97428.38;;;25.56;37.06
63321;BME280;49449;48.800;9.534;2022-09-14T11:56:46;97422.88;;;25.68;36.11
63321;BME280;49449;48.800;9.534;2022-09-14T11:59:45;97416.03;;;25.75;35.84
63321;BME280;49449;48.800;9.534;2022-09-14T12:02:59;97417.00;;;25.66;35.79
63321;BME280;49449;48.800;9.534;2022-09-14T12:05:32;97422.97;;;25.56;36.05
63321;BME280;49449;48.800;9.534;2022-09-14T12:08:26;97424.47;;;25.54;35.85
63321;BME280;49449;48.800;9.534;2022-09-14T12:11:03;97423.31;;;25.35;35.13
63321;BME280;49449;48.800;9.534;2022-09-14T12:13:32;97431.88;;;25.21;35.31
63321;BME280;49449;48.800;9.534;2022-09-14T12:16:02;97444.34;;;25.10;35.51
63321;BME280;49449;48.800;9.534;2022-09-14T12:18:31;97433.97;;;24.80;35.81
63321;BME280;49449;48.800;9.534;2022-09-14T12:21:04;97432.59;;;24.86;36.20
63321;BME280;49449;48.800;9.534;2022-09-14T12:23:45;97431.47;;;24.71;35.92
63321;BME280;49449;48.800;9.534;2022-09-14T12:26:34;97434.59;;;24.73;36.12
63321;BME280;49449;48.800;9.534;2022-09-14T12:29:25;97433.09;;;24.76;36.33
63321;BME280;49449;48.800;9.534;2022-09-14T12:32:06;97428.38;;;24.73;36.53
63321;BME280;49449;48.800;9.534;2022-09-14T12:37:51;97429.63;;;24.60;37.00
63321;BME280;49449;48.800;9.534;2022-09-14T12:40:36;97427.19;;;24.54;36.83
63321;BME280;49449;48.800;9.534;2022-09-14T12:46:34;97423.88;;;24.17;37.18
63321;BME280;49449;48.800;9.534;2022-09-14T12:52:04;97429.38;;;23.92;37.45
63321;BME280;49449;48.800;9.534;2022-09-14T12:54:49;97440.72;;;23.86;37.90
63321;BME280;49449;48.800;9.534;2022-09-14T12:57:29;97443.16;;;23.62;37.27
63321;BME280;49449;48.800;9.534;2022-09-14T13:00:09;97438.00;;;23.57;37.72
63321;BME280;49449;48.800;9.534;2022-09-14T13:03:02;97435.00;;;23.47;37.40
63321;BME280;49449;48.800;9.534;2022-09-14T13:05:35;97439.06;;;23.69;36.85
63321;BME280;49449;48.800;9.534;2022-09-14T13:08:08;97434.78;;;23.39;37.28
63321;BME280;49449;48.800;9.534;2022-09-14T13:10:37;97439.72;;;23.50;36.65
63321;BME280;49449;48.800;9.534;2022-09-14T13:13:14;97440.94;;;23.52;36.74
63321;BME280;49449;48.800;9.534;2022-09-14T13:15:50;97460.56;;;23.53;36.79
63321;BME280;49449;48.800;9.534;2022-09-14T13:18:33;97455.88;;;23.50;37.62
63321;BME280;49449;48.800;9.534;2022-09-14T13:21:11;97463.97;;;23.50;38.09
63321;BME280;49449;48.800;9.534;2022-09-14T13:23:43;97461.28;;;23.50;37.86
63321;BME280;49449;48.800;9.534;2022-09-14T13:26:15;97454.16;;;23.57;37.34
63321;BME280;49449;48.800;9.534;2022-09-14T13:28:47;97459.69;;;23.36;38.68
63321;BME280;49449;48.800;9.534;2022-09-14T13:31:29;97461.81;;;22.81;40.40
63321;BME280;49449;48.800;9.534;2022-09-14T13:33:57;97470.56;;;23.03;39.96
63321;BME280;49449;48.800;9.534;2022-09-14T13:36:28;97474.94;;;22.95;40.70